Time;durP1;ratioP1;P1;durP2;ratioP2;P2;SDS_P1;SDS_P2;PMS_P1;PMS_P2;Temp;Humidity;BMP_temperature;BMP_pressure;BME280_temperature;BME280_humidity;BME280_pressure;Samples;Min_cycle;Max_cycle;Signal;HPM_P1;HPM_P2
2021/12/14 00:00:31;;;;;;;19.17;12.57;;;8.60;99.90;;;;;;5015203;28;20150;-69
2021/12/14 00:02:57;;;;;;;21.05;13.23;;;8.60;99.90;;;;;;5015288;28;20448;-69
2021/12/14 00:05:25;;;;;;;18.67;13.07;;;8.60;99.90;;;;;;4998874;28;20048;-69
2021/12/14 00:07:55;;;;;;;18.17;12.70;;;8.60;99.90;;;;;;5015287;28;20049;-68
2021/12/14 00:10:46;;;;;;;19.50;13.38;;;8.60;99.90;;;;;;5012916;28;20442;-69
2021/12/14 00:13:28;;;;;;;17.92;12.48;;;8.60;99.90;;;;;;5015198;28;20153;-68
2021/12/14 00:15:55;;;;;;;20.88;13.45;;;8.60;99.90;;;;;;5014830;28;20138;-68
2021/12/14 00:18:22;;;;;;;20.60;13.50;;;8.60;99.90;;;;;;5015139;28;20041;-68
2021/12/14 00:20:52;;;;;;;19.45;12.90;;;8.60;99.90;;;;;;4998363;28;20497;-68
2021/12/14 00:26:09;;;;;;;19.73;13.50;;;8.60;99.90;;;;;;5014956;28;20045;-68
2021/12/14 00:28:36;;;;;;;20.25;13.95;;;8.60;99.90;;;;;;4998620;28;20106;-69
2021/12/14 00:31:09;;;;;;;18.48;13.18;;;8.60;99.90;;;;;;5047871;28;20139;-69
2021/12/14 00:33:38;;;;;;;21.25;14.10;;;8.60;99.90;;;;;;4998399;28;20077;-69
2021/12/14 00:36:07;;;;;;;18.25;14.60;;;8.60;99.90;;;;;;4998463;28;20124;-69
2021/12/14 00:38:35;;;;;;;22.23;14.35;;;8.60;99.90;;;;;;4998271;28;20068;-69
2021/12/14 00:41:17;;;;;;;32.17;14.85;;;8.60;99.90;;;;;;5012224;28;20041;-69
2021/12/14 00:43:43;;;;;;;20.35;13.13;;;8.60;99.90;;;;;;5014673;28;20483;-69
2021/12/14 00:46:10;;;;;;;20.33;13.93;;;8.60;99.90;;;;;;5014609;28;20080;-69
2021/12/14 00:48:38;;;;;;;21.17;12.75;;;8.60;99.90;;;;;;5014472;28;20046;-69
2021/12/14 00:51:05;;;;;;;22.13;15.13;;;8.60;99.90;;;;;;4997954;28;20049;-69
2021/12/14 00:53:32;;;;;;;19.33;14.30;;;8.60;99.90;;;;;;5014395;28;20045;-69
2021/12/14 00:56:00;;;;;;;19.88;13.63;;;8.60;99.90;;;;;;5014314;28;20038;-69
2021/12/14 00:58:26;;;;;;;23.13;14.55;;;8.60;99.90;;;;;;5014190;28;20497;-69
2021/12/14 01:01:03;;;;;;;22.88;13.90;;;8.60;99.90;;;;;;4997861;28;20591;-69
2021/12/14 01:03:32;;;;;;;21.17;14.93;;;8.60;99.90;;;;;;5014491;28;20030;-69
2021/12/14 01:06:00;;;;;;;20.40;13.63;;;8.60;99.90;;;;;;5014014;28;20053;-69
2021/12/14 01:08:34;;;;;;;19.92;15.02;;;8.60;99.90;;;;;;5014263;28;20034;-68
2021/12/14 01:11:07;;;;;;;23.80;13.48;;;8.60;99.90;;;;;;4995386;28;20050;-68
2021/12/14 01:13:39;;;;;;;21.98;13.85;;;8.60;99.90;;;;;;5014056;28;20083;-68
2021/12/14 01:16:19;;;;;;;22.65;14.10;;;8.60;99.90;;;;;;5013664;28;20128;-68
2021/12/14 01:19:00;;;;;;;16.08;11.00;;;8.60;99.90;;;;;;5014106;28;20049;-68
2021/12/14 01:24:51;;;;;;;23.40;15.73;;;8.60;99.90;;;;;;5014106;28;20089;-69
2021/12/14 01:27:16;;;;;;;21.73;14.77;;;8.50;99.90;;;;;;5013974;28;20057;-69
2021/12/14 01:29:44;;;;;;;22.48;15.32;;;8.50;99.90;;;;;;5013639;28;20124;-69
2021/12/14 01:32:12;;;;;;;22.73;15.50;;;8.50;99.90;;;;;;4997396;28;20133;-69
2021/12/14 01:34:37;;;;;;;26.00;16.70;;;8.50;99.90;;;;;;4997515;28;20110;-69
2021/12/14 01:37:12;;;;;;;22.27;15.07;;;8.50;99.90;;;;;;4997363;28;20634;-68
2021/12/14 01:40:02;;;;;;;23.02;15.65;;;8.50;99.90;;;;;;5011422;28;20401;-69
2021/12/14 01:42:35;;;;;;;23.58;14.85;;;8.50;99.90;;;;;;4997359;28;20052;-69
2021/12/14 01:45:12;;;;;;;19.48;12.63;;;8.50;99.90;;;;;;4997288;28;20093;-68
2021/12/14 01:48:04;;;;;;;26.00;17.10;;;8.50;99.90;;;;;;5046527;28;20053;-68
2021/12/14 01:50:43;;;;;;;22.63;14.55;;;8.50;99.90;;;;;;5030587;28;20110;-69
2021/12/14 01:53:11;;;;;;;23.10;15.82;;;8.50;99.90;;;;;;4997447;28;20370;-68
2021/12/14 01:55:39;;;;;;;23.27;16.73;;;8.50;99.90;;;;;;5013266;28;20560;-69
2021/12/14 01:58:08;;;;;;;25.52;16.83;;;8.50;99.90;;;;;;5030063;28;20060;-69
2021/12/14 02:00:53;;;;;;;22.83;17.55;;;8.50;99.90;;;;;;4997240;28;20121;-69
2021/12/14 02:03:21;;;;;;;24.30;16.95;;;8.50;99.90;;;;;;5013179;28;20038;-68
2021/12/14 02:05:51;;;;;;;26.20;16.75;;;8.50;99.90;;;;;;5046466;28;20150;-68
2021/12/14 02:08:22;;;;;;;25.98;16.17;;;8.50;99.90;;;;;;5013196;28;20124;-69
2021/12/14 02:10:49;;;;;;;24.20;17.50;;;8.50;99.90;;;;;;5011067;28;20128;-69
2021/12/14 02:13:26;;;;;;;25.17;17.65;;;8.50;99.90;;;;;;5013359;28;20397;-69
2021/12/14 02:15:53;;;;;;;24.98;18.00;;;8.50;99.90;;;;;;5012801;28;20060;-68
2021/12/14 02:18:23;;;;;;;23.30;17.05;;;8.50;99.90;;;;;;5046169;28;20081;-69
2021/12/14 02:21:00;;;;;;;27.55;18.63;;;8.50;99.90;;;;;;4995743;28;20045;-69
2021/12/14 02:23:28;;;;;;;26.80;17.15;;;8.40;99.90;;;;;;5046184;28;20048;-68
2021/12/14 02:25:56;;;;;;;25.95;17.73;;;8.50;99.90;;;;;;4996374;28;20094;-69
2021/12/14 02:28:23;;;;;;;26.73;18.95;;;8.50;99.90;;;;;;5046123;28;20049;-68
2021/12/14 02:30:52;;;;;;;27.30;18.27;;;8.40;99.90;;;;;;5012692;28;20124;-69
2021/12/14 02:33:31;;;;;;;25.63;17.70;;;8.40;99.90;;;;;;5012876;28;20045;-69
2021/12/14 02:35:59;;;;;;;27.75;18.30;;;8.40;99.90;;;;;;5012874;28;20057;-69
2021/12/14 02:38:26;;;;;;;25.48;18.70;;;8.50;99.90;;;;;;5012858;28;20025;-69
2021/12/14 02:41:01;;;;;;;28.60;18.92;;;8.50;99.90;;;;;;5001699;28;20042;-68
2021/12/14 02:43:50;;;;;;;30.00;19.80;;;8.40;99.90;;;;;;4993594;28;20041;-69
2021/12/14 02:46:20;;;;;;;27.50;19.25;;;8.40;99.90;;;;;;4993219;28;20191;-69
2021/12/14 02:48:51;;;;;;;27.92;19.20;;;8.50;99.90;;;;;;4993095;28;20042;-69
2021/12/14 02:51:24;;;;;;;29.05;19.60;;;8.40;99.90;;;;;;4976855;28;20046;-69
2021/12/14 02:53:53;;;;;;;28.92;19.20;;;8.40;99.90;;;;;;4976855;28;20050;-69
2021/12/14 02:56:22;;;;;;;29.23;19.00;;;8.40;99.90;;;;;;4976723;28;20504;-69
2021/12/14 02:58:49;;;;;;;30.48;20.50;;;8.40;99.90;;;;;;4976801;28;20131;-69
2021/12/14 03:01:17;;;;;;;29.02;21.02;;;8.50;99.90;;;;;;4992915;28;20038;-69
2021/12/14 03:03:43;;;;;;;34.42;21.63;;;8.40;99.90;;;;;;4993112;28;20358;-69
2021/12/14 03:06:11;;;;;;;29.67;20.95;;;8.40;99.90;;;;;;4976479;28;20046;-69
2021/12/14 03:08:45;;;;;;;29.52;20.80;;;8.40;99.90;;;;;;4992803;28;20103;-69
2021/12/14 03:11:12;;;;;;;30.65;21.65;;;8.40;99.90;;;;;;4990708;28;20420;-69
2021/12/14 03:13:47;;;;;;;31.58;20.95;;;8.40;99.90;;;;;;4992676;28;20088;-69
2021/12/14 03:16:23;;;;;;;31.23;22.38;;;8.40;99.90;;;;;;4992413;28;20065;-69
2021/12/14 03:18:51;;;;;;;32.92;22.30;;;8.40;99.90;;;;;;4976620;28;20038;-69
2021/12/14 03:21:31;;;;;;;32.15;22.38;;;8.40;99.90;;;;;;4976427;28;20045;-69
2021/12/14 03:24:02;;;;;;;31.00;21.88;;;8.40;99.90;;;;;;4992625;28;20110;-69
2021/12/14 03:26:31;;;;;;;33.65;22.33;;;8.40;99.90;;;;;;4992673;28;20050;-69
2021/12/14 03:29:03;;;;;;;35.20;23.42;;;8.40;99.90;;;;;;4992835;28;20114;-69
2021/12/14 03:31:36;;;;;;;34.65;23.25;;;8.40;99.90;;;;;;4992650;28;20088;-69
2021/12/14 03:34:07;;;;;;;31.58;22.85;;;8.40;99.90;;;;;;4996514;28;20386;-69
2021/12/14 03:36:39;;;;;;;34.20;22.55;;;8.40;99.90;;;;;;4979639;28;20124;-69
2021/12/14 03:39:19;;;;;;;32.15;21.92;;;8.40;99.90;;;;;;4994145;28;20204;-68
2021/12/14 03:41:54;;;;;;;35.97;24.00;;;8.40;99.90;;;;;;5012166;28;20125;-68
2021/12/14 03:44:29;;;;;;;34.33;24.17;;;8.40;99.90;;;;;;4996259;28;20042;-69
2021/12/14 03:46:58;;;;;;;36.92;23.83;;;8.50;99.90;;;;;;4979852;28;20137;-69
2021/12/14 03:49:32;;;;;;;35.47;22.83;;;8.40;99.90;;;;;;4995658;28;20053;-69
2021/12/14 03:51:59;;;;;;;37.33;24.33;;;8.40;99.90;;;;;;5028396;28;20049;-69
2021/12/14 03:54:25;;;;;;;38.17;25.23;;;8.40;99.90;;;;;;5011990;28;20046;-69
2021/12/14 03:56:52;;;;;;;35.92;23.77;;;8.40;99.90;;;;;;4995617;28;20077;-69
2021/12/14 03:59:18;;;;;;;36.67;25.35;;;8.40;99.90;;;;;;4995867;28;20030;-69
2021/12/14 04:01:48;;;;;;;33.88;24.27;;;8.40;99.90;;;;;;4979381;28;20073;-69
2021/12/14 04:04:37;;;;;;;38.35;23.55;;;8.40;99.90;;;;;;4995660;28;20556;-69
2021/12/14 04:07:07;;;;;;;34.60;22.30;;;8.40;99.90;;;;;;4995667;28;20413;-69
2021/12/14 04:09:35;;;;;;;35.05;22.98;;;8.40;99.90;;;;;;5026241;28;20119;-69
2021/12/14 04:12:04;;;;;;;32.00;22.02;;;8.40;99.90;;;;;;4995593;28;20102;-69
2021/12/14 04:14:31;;;;;;;33.25;23.05;;;8.40;99.90;;;;;;5011697;28;20137;-69
2021/12/14 04:16:59;;;;;;;33.03;23.50;;;8.40;99.90;;;;;;5011257;28;20058;-69
2021/12/14 04:19:29;;;;;;;35.22;23.83;;;8.40;99.90;;;;;;4995334;28;20081;-70
2021/12/14 04:22:00;;;;;;;33.60;22.80;;;8.40;99.90;;;;;;4995148;28;20049;-70
2021/12/14 04:24:30;;;;;;;34.50;22.58;;;8.40;99.90;;;;;;5028095;28;20067;-69
2021/12/14 04:26:58;;;;;;;36.15;23.88;;;8.40;99.90;;;;;;5027824;28;20054;-69
2021/12/14 04:29:24;;;;;;;35.65;23.25;;;8.40;99.90;;;;;;5011375;28;20509;-70
2021/12/14 04:31:51;;;;;;;35.90;24.13;;;8.40;99.90;;;;;;5027871;28;20050;-69
2021/12/14 04:34:19;;;;;;;36.97;24.48;;;8.40;99.90;;;;;;5028127;28;20049;-69
2021/12/14 04:36:52;;;;;;;34.05;23.65;;;8.40;99.90;;;;;;5027614;28;20054;-69
2021/12/14 04:53:02;;;;;;;36.08;23.48;;;8.30;99.90;;;;;;5007856;28;20115;-70
2021/12/14 04:55:28;;;;;;;40.38;24.60;;;8.30;99.90;;;;;;4975128;28;20082;-69
2021/12/14 04:57:54;;;;;;;35.75;24.40;;;8.30;99.90;;;;;;5007722;28;20043;-70
2021/12/14 05:00:30;;;;;;;37.92;25.17;;;8.30;99.90;;;;;;4975463;28;20099;-69
2021/12/14 05:02:58;;;;;;;37.90;25.55;;;8.30;99.90;;;;;;5007537;28;20046;-70
2021/12/14 05:05:30;;;;;;;38.95;25.65;;;8.30;99.90;;;;;;5007831;28;20103;-69
2021/12/14 05:10:39;;;;;;;39.50;26.23;;;8.30;99.90;;;;;;5005608;28;20068;-68
2021/12/14 05:13:05;;;;;;;39.92;26.08;;;8.30;99.90;;;;;;5007642;28;20042;-69
2021/12/14 05:15:31;;;;;;;36.53;25.20;;;8.40;99.90;;;;;;4997414;28;20380;-69
2021/12/14 05:17:58;;;;;;;38.88;26.35;;;8.40;99.90;;;;;;4952615;28;20047;-69
2021/12/14 05:20:23;;;;;;;41.78;27.45;;;8.40;99.90;;;;;;4952423;28;20122;-70
2021/12/14 05:22:50;;;;;;;36.17;24.45;;;8.40;99.90;;;;;;4936456;29;20039;-70
2021/12/14 05:25:26;;;;;;;42.22;28.10;;;8.40;99.90;;;;;;4952397;29;20112;-70
2021/12/14 05:27:57;;;;;;;42.95;27.98;;;8.40;99.90;;;;;;4952482;28;20129;-69
2021/12/14 05:30:40;;;;;;;40.95;26.83;;;8.40;99.90;;;;;;4984529;28;20043;-69
2021/12/14 05:33:27;;;;;;;40.38;27.98;;;8.40;99.90;;;;;;4952503;28;20399;-69
2021/12/14 05:35:57;;;;;;;40.47;27.90;;;8.40;99.90;;;;;;4952110;28;20043;-69
2021/12/14 05:38:40;;;;;;;44.90;28.90;;;8.40;99.90;;;;;;4958359;28;20127;-69
2021/12/14 05:41:14;;;;;;;45.42;28.88;;;8.40;99.90;;;;;;5002197;28;20495;-69
2021/12/14 05:43:40;;;;;;;42.85;28.15;;;8.40;99.90;;;;;;4971642;28;20101;-69
2021/12/14 05:46:07;;;;;;;43.25;29.42;;;8.40;99.90;;;;;;5003705;28;20043;-70
2021/12/14 05:48:36;;;;;;;45.67;29.80;;;8.40;99.90;;;;;;5003797;28;20114;-70
2021/12/14 05:51:05;;;;;;;46.30;30.30;;;8.40;99.90;;;;;;4971539;28;20425;-70
2021/12/14 05:53:43;;;;;;;45.35;29.73;;;8.40;99.90;;;;;;4971262;28;20105;-70
2021/12/14 05:56:14;;;;;;;45.67;29.85;;;8.40;99.90;;;;;;5002520;28;20039;-69
2021/12/14 05:58:41;;;;;;;45.97;29.98;;;8.40;99.90;;;;;;5003477;28;20099;-69
2021/12/14 06:01:10;;;;;;;48.80;30.85;;;8.40;99.90;;;;;;5003613;28;20054;-70
2021/12/14 06:03:41;;;;;;;44.75;29.30;;;8.40;99.90;;;;;;4987227;28;20043;-70
2021/12/14 06:06:38;;;;;;;42.97;29.52;;;8.40;99.90;;;;;;4971004;28;20038;-69
2021/12/14 06:09:23;;;;;;;46.45;29.85;;;8.40;99.90;;;;;;5002273;28;20129;-69
2021/12/14 06:11:53;;;;;;;46.55;30.55;;;8.40;99.90;;;;;;4971238;28;20045;-69
2021/12/14 06:14:26;;;;;;;44.78;30.75;;;8.40;99.90;;;;;;4970848;28;20085;-69
2021/12/14 06:16:57;;;;;;;49.25;30.83;;;8.40;99.90;;;;;;5003085;28;20605;-69
2021/12/14 06:19:25;;;;;;;45.78;29.95;;;8.40;99.90;;;;;;5003453;28;20368;-69
2021/12/14 06:21:55;;;;;;;44.25;29.58;;;8.40;99.90;;;;;;4970774;28;20054;-69
2021/12/14 06:24:23;;;;;;;43.42;29.73;;;8.40;99.90;;;;;;4970943;28;20450;-69
2021/12/14 06:26:53;;;;;;;47.97;29.48;;;8.40;99.90;;;;;;4954671;28;20184;-69
2021/12/14 06:29:23;;;;;;;43.50;29.08;;;8.40;99.90;;;;;;4987148;28;20382;-69
2021/12/14 06:31:51;;;;;;;48.40;31.75;;;8.40;99.90;;;;;;4970756;28;20055;-69
2021/12/14 06:34:22;;;;;;;47.90;30.35;;;8.40;99.90;;;;;;4970660;28;20078;-69
2021/12/14 06:37:04;;;;;;;49.13;31.92;;;8.40;99.90;;;;;;4970607;28;20058;-69
2021/12/14 06:39:50;;;;;;;48.03;32.08;;;8.40;99.90;;;;;;4968143;28;20080;-69
2021/12/14 06:42:16;;;;;;;54.42;33.20;;;8.40;99.90;;;;;;4970323;28;20042;-69
2021/12/14 06:44:42;;;;;;;54.92;34.58;;;8.40;99.90;;;;;;4970281;28;20121;-69
2021/12/14 06:47:08;;;;;;;55.58;33.95;;;8.40;99.90;;;;;;4970389;28;20088;-70
2021/12/14 06:49:34;;;;;;;53.35;33.80;;;8.40;99.90;;;;;;4954292;28;20057;-69
2021/12/14 06:52:00;;;;;;;57.17;34.33;;;8.30;99.90;;;;;;4954598;28;20042;-69
2021/12/14 06:54:29;;;;;;;53.13;33.60;;;8.40;99.90;;;;;;4970192;28;20402;-70
2021/12/14 06:56:59;;;;;;;59.30;35.47;;;8.30;99.90;;;;;;4970315;28;20039;-69
2021/12/14 06:59:26;;;;;;;57.15;34.13;;;8.30;99.90;;;;;;4954118;28;20129;-69
2021/12/14 07:02:00;;;;;;;63.15;35.90;;;8.30;99.90;;;;;;4970230;28;20043;-69
2021/12/14 07:04:33;;;;;;;57.03;34.83;;;8.30;99.90;;;;;;4970308;28;20039;-69
2021/12/14 07:07:03;;;;;;;56.00;35.08;;;8.30;99.90;;;;;;4953913;28;20050;-69
2021/12/14 07:09:38;;;;;;;62.92;35.80;;;8.30;99.90;;;;;;4968004;28;20047;-69
2021/12/14 07:12:11;;;;;;;55.65;34.40;;;8.30;99.90;;;;;;4970316;28;20379;-69
2021/12/14 07:15:09;;;;;;;56.05;33.50;;;8.30;99.90;;;;;;4970135;28;20045;-69
2021/12/14 07:17:44;;;;;;;54.50;36.10;;;8.30;99.90;;;;;;4985888;28;20065;-69
2021/12/14 07:20:13;;;;;;;55.95;34.67;;;8.30;99.90;;;;;;4992496;28;20050;-69
2021/12/14 07:22:46;;;;;;;59.17;35.42;;;8.30;99.90;;;;;;4992799;28;20050;-69
2021/12/14 07:25:31;;;;;;;58.45;37.13;;;8.30;99.90;;;;;;4976316;28;20046;-69
2021/12/14 07:28:06;;;;;;;57.10;34.38;;;8.30;99.90;;;;;;4992547;28;20052;-69
2021/12/14 07:30:47;;;;;;;59.92;36.13;;;8.30;99.90;;;;;;4992334;28;20091;-69
2021/12/14 07:33:20;;;;;;;53.28;31.70;;;8.30;99.90;;;;;;4992443;28;20046;-69
2021/12/14 07:35:48;;;;;;;56.83;34.03;;;8.30;99.90;;;;;;4991729;28;20473;-69
2021/12/14 07:38:25;;;;;;;55.28;34.22;;;8.30;99.90;;;;;;4992255;28;20426;-69
2021/12/14 07:41:15;;;;;;;58.10;35.05;;;8.30;99.90;;;;;;5039047;28;20105;-69
2021/12/14 07:43:43;;;;;;;;;;;8.30;99.90;;;;;;4992796;28;20081;-69
2021/12/14 07:46:16;;;;;;;56.35;34.67;;;8.30;99.90;;;;;;4976169;28;20000;-69
2021/12/14 07:48:48;;;;;;;57.05;34.20;;;8.30;99.90;;;;;;4992385;28;20037;-69
2021/12/14 07:51:16;;;;;;;56.92;31.05;;;8.30;99.90;;;;;;4992493;28;20122;-69
2021/12/14 07:53:48;;;;;;;55.80;33.45;;;8.30;99.90;;;;;;4992311;28;20034;-69
2021/12/14 07:56:43;;;;;;;55.90;35.13;;;8.30;99.90;;;;;;4992045;28;20048;-69
2021/12/14 07:59:20;;;;;;;57.10;34.33;;;8.30;99.90;;;;;;4991945;28;20045;-69
2021/12/14 08:01:48;;;;;;;52.85;32.65;;;8.30;99.90;;;;;;4992065;28;20557;-69
2021/12/14 08:04:14;;;;;;;55.42;33.97;;;8.30;99.90;;;;;;4991964;28;20046;-69
2021/12/14 08:06:43;;;;;;;52.42;31.40;;;8.40;99.90;;;;;;4992029;28;20042;-70
2021/12/14 08:09:16;;;;;;;53.60;33.13;;;8.40;99.90;;;;;;4974289;28;20125;-69
2021/12/14 08:11:48;;;;;;;51.25;32.33;;;8.40;99.90;;;;;;4976124;28;20453;-69
2021/12/14 08:14:25;;;;;;;52.33;34.17;;;8.40;99.90;;;;;;4992098;28;20042;-69
2021/12/14 08:17:07;;;;;;;51.28;32.92;;;8.40;99.90;;;;;;4991898;28;20093;-69
2021/12/14 08:19:39;;;;;;;55.22;33.28;;;8.40;99.90;;;;;;4993254;28;20049;-69
2021/12/14 08:22:24;;;;;;;48.60;31.88;;;8.50;99.90;;;;;;4979044;28;20042;-68
2021/12/14 08:24:50;;;;;;;46.45;30.98;;;8.50;99.90;;;;;;4995173;28;20142;-68
2021/12/14 08:27:25;;;;;;;50.00;32.85;;;8.50;99.90;;;;;;4995297;28;20092;-69
2021/12/14 08:29:53;;;;;;;51.13;33.55;;;8.50;99.90;;;;;;4995486;28;20052;-69
2021/12/14 08:32:24;;;;;;;48.78;31.08;;;8.40;99.90;;;;;;4995457;28;20100;-69
2021/12/14 08:34:52;;;;;;;53.42;33.38;;;8.50;99.90;;;;;;4992594;28;20494;-69
2021/12/14 08:37:20;;;;;;;52.85;33.85;;;8.50;99.90;;;;;;5038201;28;20040;-69
2021/12/14 08:40:09;;;;;;;51.47;33.50;;;8.50;99.90;;;;;;5004376;28;20046;-69
2021/12/14 08:42:45;;;;;;;51.45;32.38;;;8.50;99.90;;;;;;5090445;28;20039;-69
2021/12/14 08:45:25;;;;;;;47.75;30.80;;;8.50;99.90;;;;;;5097668;28;20054;-69
2021/12/14 08:48:18;;;;;;;51.40;32.50;;;8.50;99.90;;;;;;5097711;28;20131;-69
2021/12/14 08:50:54;;;;;;;51.03;32.70;;;8.50;99.90;;;;;;5081109;28;20035;-69
2021/12/14 08:53:22;;;;;;;53.92;32.67;;;8.50;99.90;;;;;;5097975;28;20039;-69
2021/12/14 08:55:50;;;;;;;54.80;32.97;;;8.50;99.90;;;;;;5097459;28;20043;-69
2021/12/14 08:58:16;;;;;;;52.38;30.75;;;8.50;99.90;;;;;;5080552;28;20479;-69
2021/12/14 09:00:49;;;;;;;52.58;33.83;;;8.50;99.90;;;;;;5097437;28;20038;-69
2021/12/14 09:03:24;;;;;;;49.92;32.95;;;8.50;99.90;;;;;;5080489;28;20035;-69
2021/12/14 09:05:52;;;;;;;53.10;32.35;;;8.60;99.90;;;;;;5074333;28;20060;-69
2021/12/14 09:08:20;;;;;;;54.80;30.80;;;8.60;99.90;;;;;;5033497;28;20036;-69
2021/12/14 09:10:49;;;;;;;50.10;31.42;;;8.50;99.90;;;;;;5094948;28;20574;-69
2021/12/14 09:13:15;;;;;;;50.97;31.90;;;8.60;99.90;;;;;;5019796;28;20042;-69
2021/12/14 09:15:55;;;;;;;50.40;31.77;;;8.60;99.90;;;;;;4994067;28;20089;-69
2021/12/14 09:18:23;;;;;;;50.72;31.67;;;8.60;99.90;;;;;;4994296;28;20057;-68
2021/12/14 09:20:57;;;;;;;49.05;28.95;;;8.60;99.90;;;;;;4994169;28;20538;-68
2021/12/14 09:23:30;;;;;;;49.75;30.67;;;8.60;99.90;;;;;;4994318;28;20042;-67
2021/12/14 09:25:56;;;;;;;52.40;32.15;;;8.60;99.90;;;;;;4994504;28;20042;-68
2021/12/14 09:28:23;;;;;;;54.35;31.80;;;8.70;99.90;;;;;;4994593;28;20079;-68
2021/12/14 09:30:55;;;;;;;62.88;34.33;;;8.70;99.90;;;;;;4977761;28;20073;-68
2021/12/14 09:33:23;;;;;;;59.03;31.80;;;8.70;99.90;;;;;;4976161;28;20041;-68
2021/12/14 09:35:49;;;;;;;59.72;34.65;;;8.60;99.90;;;;;;5021652;28;20035;-68
2021/12/14 09:38:19;;;;;;;60.30;32.28;;;8.70;99.90;;;;;;5070176;28;20103;-68
2021/12/14 09:40:53;;;;;;;71.28;36.13;;;8.60;99.90;;;;;;5059084;28;20092;-68
2021/12/14 09:43:21;;;;;;;62.25;34.88;;;8.60;99.90;;;;;;5007578;28;20393;-68
2021/12/14 09:45:57;;;;;;;63.47;35.65;;;8.60;99.90;;;;;;5096658;28;20048;-67
2021/12/14 09:48:27;;;;;;;64.65;34.75;;;8.60;99.90;;;;;;5049192;28;20125;-67
2021/12/14 09:50:54;;;;;;;;;;;8.70;99.90;;;;;;4978031;28;20107;-67
2021/12/14 09:53:25;;;;;;;60.50;33.80;;;8.70;99.90;;;;;;4994262;28;19963;-65
2021/12/14 09:55:52;;;;;;;69.30;34.17;;;8.70;99.90;;;;;;4993749;28;20054;-67
2021/12/14 09:58:25;;;;;;;74.78;36.60;;;8.70;99.90;;;;;;4977112;28;20129;-67
2021/12/14 10:00:58;;;;;;;62.92;33.85;;;8.70;99.90;;;;;;5036614;28;20043;-67
2021/12/14 10:03:24;;;;;;;64.13;34.00;;;8.70;99.90;;;;;;5096095;28;20039;-67
2021/12/14 10:05:57;;;;;;;64.75;35.47;;;8.70;99.90;;;;;;5096325;28;20043;-67
2021/12/14 10:08:30;;;;;;;65.93;34.13;;;8.70;99.90;;;;;;5096135;28;20035;-67
2021/12/14 10:11:07;;;;;;;60.53;34.88;;;8.80;99.90;;;;;;5093735;28;20089;-67
2021/12/14 10:13:37;;;;;;;65.07;34.22;;;8.70;99.90;;;;;;5096103;28;20497;-67
2021/12/14 10:16:05;;;;;;;55.83;31.23;;;8.80;99.90;;;;;;5081046;28;20048;-67
2021/12/14 10:18:41;;;;;;;58.20;31.00;;;8.80;99.90;;;;;;5055912;28;20047;-67
2021/12/14 10:21:07;;;;;;;56.15;28.08;;;8.80;99.90;;;;;;5072133;28;20041;-67
2021/12/14 10:23:34;;;;;;;61.90;31.80;;;8.80;99.90;;;;;;5072377;28;20051;-67
2021/12/14 10:26:01;;;;;;;59.72;29.95;;;8.80;99.90;;;;;;5072131;28;20036;-68
2021/12/14 10:28:29;;;;;;;59.45;31.02;;;8.80;99.90;;;;;;5072153;28;20036;-67
2021/12/14 10:31:21;;;;;;;58.55;29.38;;;8.80;99.90;;;;;;5072000;28;20105;-67
2021/12/14 10:33:47;;;;;;;61.22;31.02;;;8.90;99.90;;;;;;5028185;28;20502;-67
2021/12/14 10:36:26;;;;;;;52.15;25.63;;;8.90;99.90;;;;;;4997020;28;20152;-68
2021/12/14 10:39:22;;;;;;;54.95;28.88;;;8.90;99.90;;;;;;5020470;28;20510;-67
2021/12/14 10:44:44;;;;;;;51.47;28.77;;;8.90;99.90;;;;;;4969499;28;20103;-68
2021/12/14 10:47:13;;;;;;;52.95;27.02;;;8.90;99.90;;;;;;4969562;28;20042;-68
2021/12/14 10:49:40;;;;;;;51.65;27.00;;;8.90;99.90;;;;;;4969664;28;20051;-67
2021/12/14 10:52:14;;;;;;;48.50;24.13;;;8.90;99.90;;;;;;4969649;28;20403;-68
2021/12/14 10:54:45;;;;;;;58.03;29.75;;;8.90;99.90;;;;;;4969669;28;20046;-68
2021/12/14 10:57:16;;;;;;;55.67;29.65;;;8.90;99.90;;;;;;4969220;28;20467;-68
2021/12/14 10:59:45;;;;;;;57.20;28.55;;;8.90;99.90;;;;;;4953219;28;20126;-68
2021/12/14 11:02:12;;;;;;;48.67;26.35;;;9.00;99.90;;;;;;4953290;28;20172;-68
2021/12/14 11:04:41;;;;;;;55.50;27.65;;;9.00;99.90;;;;;;4969414;28;20049;-68
2021/12/14 11:07:12;;;;;;;54.70;26.95;;;9.00;99.90;;;;;;4969264;28;20105;-68
2021/12/14 11:09:42;;;;;;;50.67;26.25;;;9.00;99.90;;;;;;4966731;28;20047;-68
2021/12/14 11:12:32;;;;;;;56.15;27.15;;;9.00;99.90;;;;;;4969416;28;20065;-68
2021/12/14 11:15:08;;;;;;;45.77;23.77;;;9.10;99.90;;;;;;4973482;28;20049;-67
2021/12/14 11:20:46;;;;;;;54.47;26.77;;;9.10;99.90;;;;;;4992004;28;20045;-68
2021/12/14 11:23:24;;;;;;;53.05;27.05;;;9.10;99.90;;;;;;4991926;28;20064;-67
2021/12/14 11:25:50;;;;;;;53.53;24.95;;;9.10;99.90;;;;;;4975360;28;20091;-67
2021/12/14 11:28:26;;;;;;;53.92;27.05;;;9.10;99.90;;;;;;4991418;28;20054;-68
2021/12/14 11:31:08;;;;;;;58.53;27.80;;;9.10;99.90;;;;;;4991527;28;20038;-69
2021/12/14 11:33:36;;;;;;;55.50;26.42;;;9.10;99.90;;;;;;4991574;28;20084;-69
2021/12/14 11:36:25;;;;;;;59.00;28.23;;;9.10;99.90;;;;;;4994052;28;20041;-68
2021/12/14 11:38:56;;;;;;;59.13;26.00;;;9.10;99.90;;;;;;5042263;28;20090;-68
2021/12/14 11:41:38;;;;;;;54.28;26.25;;;9.20;99.90;;;;;;4972862;28;20042;-68
2021/12/14 11:44:14;;;;;;;52.50;26.30;;;9.20;99.90;;;;;;4975338;28;20085;-68
2021/12/14 11:46:59;;;;;;;53.22;25.80;;;9.20;99.90;;;;;;4991194;28;20056;-68
2021/12/14 11:49:52;;;;;;;52.63;27.33;;;9.20;99.90;;;;;;4991191;28;20096;-68
2021/12/14 11:52:55;;;;;;;50.55;26.10;;;9.20;99.90;;;;;;4975368;28;20124;-68
2021/12/14 11:55:43;;;;;;;50.33;24.63;;;9.30;99.90;;;;;;4994676;28;20520;-68
2021/12/14 11:58:11;;;;;;;52.25;25.02;;;9.30;99.90;;;;;;4978399;28;20048;-68
2021/12/14 12:00:45;;;;;;;51.60;25.52;;;9.20;99.90;;;;;;4994620;28;20045;-68
2021/12/14 12:03:18;;;;;;;50.13;24.98;;;9.30;99.90;;;;;;4994529;28;20045;-68
2021/12/14 12:06:02;;;;;;;46.63;24.92;;;9.20;99.90;;;;;;4994594;28;20132;-68
2021/12/14 12:11:15;;;;;;;52.47;26.42;;;9.30;99.90;;;;;;4992222;28;20042;-68
2021/12/14 12:13:42;;;;;;;48.67;24.63;;;9.30;99.90;;;;;;4994586;28;20046;-68
2021/12/14 12:16:21;;;;;;;55.67;24.63;;;9.30;99.90;;;;;;4994395;28;20058;-68
2021/12/14 12:19:25;;;;;;;50.03;24.80;;;9.30;99.90;;;;;;4978495;28;20085;-68
2021/12/14 12:21:52;;;;;;;49.05;25.13;;;9.30;99.90;;;;;;4916174;28;20058;-68
2021/12/14 12:24:37;;;;;;;48.75;23.92;;;9.30;99.90;;;;;;4964038;28;20056;-68
2021/12/14 12:27:36;;;;;;;55.00;26.67;;;9.30;99.90;;;;;;4994363;28;20038;-68
2021/12/14 12:30:42;;;;;;;46.28;24.00;;;9.30;99.90;;;;;;4994515;28;20137;-67
2021/12/14 12:33:23;;;;;;;53.53;26.60;;;9.30;99.90;;;;;;4993529;28;20060;-68
2021/12/14 12:36:19;;;;;;;52.08;26.73;;;9.30;99.90;;;;;;4994121;28;20041;-68
2021/12/14 12:38:47;;;;;;;56.15;26.65;;;9.30;99.90;;;;;;4983526;28;20083;-68
2021/12/14 12:41:32;;;;;;;53.67;25.80;;;9.30;99.90;;;;;;4975581;28;20034;-68
2021/12/14 12:44:24;;;;;;;54.33;26.35;;;9.30;99.90;;;;;;4993864;28;20073;-68
2021/12/14 12:47:22;;;;;;;46.22;22.95;;;9.40;99.90;;;;;;4948446;28;20061;-68
2021/12/14 12:49:53;;;;;;;41.45;22.90;;;9.30;99.90;;;;;;4951191;28;20058;-68
2021/12/14 12:52:30;;;;;;;58.15;26.40;;;9.40;99.90;;;;;;4994034;28;20046;-68
2021/12/14 12:55:06;;;;;;;53.03;25.45;;;9.40;99.90;;;;;;4993769;28;20057;-68
2021/12/14 12:57:55;;;;;;;50.75;26.10;;;9.40;99.90;;;;;;4993689;28;20124;-68
2021/12/14 13:00:36;;;;;;;55.50;26.00;;;9.40;99.90;;;;;;4993581;28;20042;-68
2021/12/14 13:03:26;;;;;;;49.90;25.80;;;9.40;99.90;;;;;;4994031;28;20116;-67
2021/12/14 13:05:54;;;;;;;49.72;22.77;;;9.40;99.90;;;;;;4993238;28;20566;-67
2021/12/14 13:08:35;;;;;;;42.63;22.52;;;9.50;99.90;;;;;;4978089;28;20369;-68
2021/12/14 13:11:03;;;;;;;46.65;21.98;;;9.50;99.90;;;;;;4975580;28;20103;-67
2021/12/14 13:13:45;;;;;;;41.60;22.30;;;9.50;99.90;;;;;;4993644;28;20084;-67
2021/12/14 13:16:16;;;;;;;42.15;22.20;;;9.50;99.90;;;;;;4993497;28;20068;-67
2021/12/14 13:18:48;;;;;;;41.90;21.38;;;9.50;99.90;;;;;;4993472;28;20042;-67
2021/12/14 13:21:28;;;;;;;39.13;20.92;;;9.50;99.90;;;;;;4993861;28;20042;-67
2021/12/14 13:24:06;;;;;;;39.83;20.90;;;9.50;99.90;;;;;;4977289;28;20129;-67
2021/12/14 13:26:43;;;;;;;41.35;21.67;;;9.50;99.90;;;;;;4993713;28;20037;-67
2021/12/14 13:29:27;;;;;;;49.33;23.02;;;9.50;99.90;;;;;;4993374;28;20042;-68
2021/12/14 13:31:57;;;;;;;46.78;23.23;;;9.50;99.90;;;;;;4977679;28;20366;-67
2021/12/14 13:34:44;;;;;;;;;;;9.50;99.90;;;;;;4993670;28;20078;-67
2021/12/14 13:37:13;;;;;;;41.35;21.33;;;9.50;99.90;;;;;;4976985;28;20012;-67
2021/12/14 13:39:40;;;;;;;42.47;21.45;;;9.50;99.90;;;;;;4991192;28;20041;-67